createdAt,value
2023-02-12T00:01:48.769Z,89.67
2023-02-12T00:04:16.492Z,90.36
2023-02-12T00:06:42.982Z,91.42
2023-02-12T00:09:09.465Z,90.93
2023-02-12T00:11:36.030Z,88.80
2023-02-12T00:14:03.144Z,85.88
2023-02-12T00:16:29.734Z,88.28
2023-02-12T00:18:57.449Z,87.43
2023-02-12T00:21:24.473Z,88.73
2023-02-12T00:23:50.966Z,88.79
2023-02-12T00:26:20.406Z,90.26
2023-02-12T00:28:47.175Z,89.95
2023-02-12T00:31:18.162Z,88.40
2023-02-12T00:33:44.823Z,89.60
2023-02-12T00:36:17.344Z,86.80
2023-02-12T00:38:44.727Z,88.98
2023-02-12T00:41:11.877Z,87.95
2023-02-12T00:43:38.570Z,87.17
2023-02-12T00:46:05.588Z,83.91
2023-02-12T00:48:32.097Z,88.22
2023-02-12T00:50:58.786Z,87.50
2023-02-12T00:53:25.457Z,86.41
2023-02-12T00:55:52.061Z,87.67
2023-02-12T00:58:19.139Z,89.22
2023-02-12T01:00:45.882Z,86.24
2023-02-12T01:03:12.316Z,85.55
2023-02-12T01:05:38.726Z,86.40
2023-02-12T01:08:05.654Z,87.09
2023-02-12T01:10:32.559Z,85.87
2023-02-12T01:12:58.987Z,86.00
2023-02-12T01:15:25.418Z,84.28
2023-02-12T01:17:53.166Z,85.48
2023-02-12T01:20:22.007Z,85.40
2023-02-12T01:22:48.535Z,87.58
2023-02-12T01:25:14.998Z,89.79
2023-02-12T01:27:41.478Z,87.07
2023-02-12T01:30:10.990Z,84.39
2023-02-12T01:32:38.239Z,85.75
2023-02-12T01:35:05.532Z,88.66
2023-02-12T01:37:35.511Z,87.77
2023-02-12T01:40:02.100Z,88.34
2023-02-12T01:42:28.616Z,86.80
2023-02-12T01:45:30.381Z,89.15
2023-02-12T01:48:00.617Z,87.20
2023-02-12T01:50:27.195Z,85.97
2023-02-12T01:52:57.177Z,87.69
2023-02-12T01:55:24.686Z,88.33
2023-02-12T01:57:51.472Z,86.62
2023-02-12T02:00:20.352Z,88.29
2023-02-12T02:02:51.368Z,88.25
2023-02-12T02:05:26.774Z,84.95
2023-02-12T02:07:54.047Z,89.97
2023-02-12T02:10:20.600Z,87.15
2023-02-12T02:13:13.209Z,87.04
2023-02-12T02:15:42.692Z,86.64
2023-02-12T02:18:20.686Z,86.19
2023-02-12T02:20:56.382Z,89.01
2023-02-12T02:24:00.659Z,86.74
2023-02-12T02:27:04.084Z,87.88
2023-02-12T02:29:51.652Z,84.70
2023-02-12T02:32:31.033Z,87.66
2023-02-12T02:35:05.299Z,83.22
2023-02-12T02:37:39.407Z,84.02
2023-02-12T02:40:13.841Z,84.29
2023-02-12T02:42:59.594Z,85.33
2023-02-12T02:45:37.669Z,86.99
2023-02-12T02:48:20.015Z,84.19
2023-02-12T02:50:52.514Z,88.19
2023-02-12T02:53:26.579Z,86.61
2023-02-12T02:55:57.308Z,88.43
2023-02-12T02:58:29.279Z,88.05
2023-02-12T03:01:02.017Z,88.05
2023-02-12T03:03:44.640Z,88.80
2023-02-12T03:06:19.251Z,86.30
2023-02-12T03:08:58.755Z,85.74
2023-02-12T03:11:31.432Z,89.55
2023-02-12T03:14:05.691Z,84.74
2023-02-12T03:16:37.525Z,85.59
2023-02-12T03:19:15.140Z,88.86
2023-02-12T03:21:48.427Z,89.16
2023-02-12T03:24:27.825Z,88.51
2023-02-12T03:27:02.661Z,87.94
2023-02-12T03:29:29.214Z,87.45
2023-02-12T03:32:04.277Z,85.79
2023-02-12T03:35:08.673Z,86.23
2023-02-12T03:37:40.507Z,84.89
2023-02-12T03:40:47.157Z,87.76
2023-02-12T03:43:29.247Z,86.80
2023-02-12T03:46:15.157Z,84.90
2023-02-12T03:49:01.282Z,86.57
2023-02-12T03:51:40.981Z,86.82
2023-02-12T03:54:11.802Z,85.05
2023-02-12T03:56:41.599Z,82.64
2023-02-12T03:59:08.329Z,83.93
2023-02-12T04:01:35.781Z,86.24
2023-02-12T04:04:05.238Z,86.36
2023-02-12T04:06:32.160Z,87.11
2023-02-12T04:09:03.037Z,84.84
2023-02-12T04:11:54.229Z,85.01
2023-02-12T04:14:29.209Z,83.45
2023-02-12T04:17:14.809Z,83.71
2023-02-12T04:20:10.397Z,85.19
2023-02-12T04:22:45.882Z,86.98
2023-02-12T04:25:30.104Z,84.40
2023-02-12T04:28:05.562Z,87.18
2023-02-12T04:30:45.531Z,87.49
2023-02-12T04:33:18.191Z,86.49
2023-02-12T04:36:16.601Z,83.10
2023-02-12T04:39:03.131Z,84.63
2023-02-12T04:41:30.937Z,84.67
2023-02-12T04:43:57.495Z,84.58
2023-02-12T04:46:23.950Z,83.99
2023-02-12T04:48:57.532Z,83.84
2023-02-12T04:51:24.019Z,82.67
2023-02-12T04:53:50.821Z,85.90
2023-02-12T04:56:17.682Z,83.97
2023-02-12T04:58:44.126Z,85.49
2023-02-12T05:01:10.923Z,82.65
2023-02-12T05:03:37.880Z,84.50
2023-02-12T05:06:08.931Z,86.58
2023-02-12T05:08:35.711Z,86.20
2023-02-12T05:11:09.721Z,88.77
2023-02-12T05:13:36.447Z,85.65
2023-02-12T05:16:07.809Z,84.55
2023-02-12T05:18:35.249Z,84.52
2023-02-12T05:21:03.780Z,81.73
2023-02-12T05:23:32.091Z,87.86
2023-02-12T05:26:00.302Z,87.90
2023-02-12T05:28:27.959Z,87.06
2023-02-12T05:30:54.536Z,90.39
2023-02-12T05:33:21.428Z,86.47
2023-02-12T05:35:47.847Z,82.88
2023-02-12T05:38:14.245Z,83.58
2023-02-12T05:40:41.008Z,86.04
2023-02-12T05:43:07.478Z,83.72
2023-02-12T05:45:33.992Z,81.40
2023-02-12T05:48:00.553Z,82.58
2023-02-12T05:50:26.962Z,85.27
2023-02-12T05:52:53.389Z,84.03
2023-02-12T05:55:19.808Z,82.53
2023-02-12T05:57:46.221Z,82.72
2023-02-12T06:00:13.351Z,83.23
2023-02-12T06:02:39.812Z,83.01
2023-02-12T06:05:06.544Z,82.18
2023-02-12T06:07:32.952Z,83.45
2023-02-12T06:09:59.383Z,82.89
2023-02-12T06:12:25.802Z,82.18
2023-02-12T06:14:52.310Z,81.17
2023-02-12T06:17:18.728Z,82.37
2023-02-12T06:19:45.165Z,82.83
2023-02-12T06:22:11.611Z,82.34
2023-02-12T06:24:38.061Z,81.45
2023-02-12T06:27:04.545Z,84.77
2023-02-12T06:29:30.952Z,85.15
2023-02-12T06:31:57.514Z,82.14
2023-02-12T06:34:24.024Z,84.26
2023-02-12T06:36:50.580Z,84.84
2023-02-12T06:39:17.938Z,84.99
2023-02-12T06:41:44.712Z,83.12
2023-02-12T06:44:12.799Z,84.82
2023-02-12T06:46:39.364Z,86.38
2023-02-12T06:49:05.989Z,85.52
2023-02-12T06:51:32.521Z,84.17
2023-02-12T06:53:58.961Z,85.84
2023-02-12T06:56:26.800Z,86.45
2023-02-12T06:58:58.384Z,84.68
2023-02-12T07:01:27.166Z,84.39
2023-02-12T07:03:59.899Z,81.42
2023-02-12T07:06:27.394Z,83.54
2023-02-12T07:08:55.009Z,83.41
2023-02-12T07:11:30.529Z,85.65
2023-02-12T07:13:57.100Z,83.89
2023-02-12T07:16:24.213Z,82.00
2023-02-12T07:18:50.885Z,82.11
2023-02-12T07:21:18.284Z,82.61
2023-02-12T07:23:51.378Z,85.56
2023-02-12T07:26:19.318Z,86.62
2023-02-12T07:28:45.806Z,84.33
2023-02-12T07:31:15.620Z,85.76
2023-02-12T07:33:42.898Z,82.92
2023-02-12T07:36:15.936Z,85.63
2023-02-12T07:38:42.931Z,83.18
2023-02-12T07:41:34.068Z,83.59
2023-02-12T07:44:10.139Z,87.38
2023-02-12T07:46:42.903Z,86.79
2023-02-12T07:49:13.898Z,83.72
2023-02-12T07:51:41.093Z,84.04
2023-02-12T07:54:07.561Z,85.03
2023-02-12T07:56:37.494Z,84.58
2023-02-12T07:59:07.146Z,85.38
2023-02-12T08:01:36.335Z,86.17
2023-02-12T08:04:09.043Z,84.53
2023-02-12T08:06:41.160Z,87.57
2023-02-12T08:09:10.094Z,86.21
2023-02-12T08:11:38.501Z,85.70
2023-02-12T08:14:05.693Z,85.38
2023-02-12T08:16:37.488Z,85.47
2023-02-12T08:19:16.172Z,86.67
2023-02-12T08:21:44.442Z,83.34
2023-02-12T08:24:11.852Z,84.46
2023-02-12T08:26:39.497Z,85.14
2023-02-12T08:29:12.026Z,83.45
2023-02-12T08:31:41.618Z,83.95
2023-02-12T08:34:21.846Z,83.73
2023-02-12T08:36:50.125Z,85.56
2023-02-12T08:39:18.218Z,84.66
2023-02-12T08:41:45.442Z,85.33
2023-02-12T08:44:12.873Z,85.34
2023-02-12T08:46:42.818Z,84.19
2023-02-12T08:49:13.986Z,84.69
2023-02-12T08:51:43.171Z,85.51
2023-02-12T08:54:14.489Z,86.12
2023-02-12T08:56:42.244Z,84.24
2023-02-12T08:59:08.804Z,85.19
2023-02-12T09:01:43.381Z,85.31
2023-02-12T09:04:21.997Z,83.21
2023-02-12T09:06:50.096Z,83.13
2023-02-12T09:09:16.882Z,85.22
2023-02-12T09:11:44.636Z,84.17
2023-02-12T09:14:14.128Z,82.14
2023-02-12T09:16:41.319Z,82.77
2023-02-12T09:19:08.930Z,82.93
2023-02-12T09:21:35.393Z,84.09
2023-02-12T09:24:03.418Z,82.34
2023-02-12T09:26:29.948Z,79.92
2023-02-12T09:28:56.551Z,80.45
2023-02-12T09:31:28.551Z,80.72
2023-02-12T09:33:59.217Z,80.25
2023-02-12T09:36:26.079Z,83.55
2023-02-12T09:38:54.137Z,82.65
2023-02-12T09:41:39.115Z,81.81
2023-02-12T09:44:22.387Z,81.70
2023-02-12T09:46:59.258Z,80.85
2023-02-12T09:50:05.912Z,81.35
2023-02-12T09:52:34.592Z,81.87
2023-02-12T09:55:01.573Z,80.75
2023-02-12T09:57:35.090Z,79.83
2023-02-12T10:00:11.913Z,81.25
2023-02-12T10:02:40.237Z,79.86
2023-02-12T10:05:18.884Z,80.20
2023-02-12T10:08:03.922Z,83.23
2023-02-12T10:10:42.724Z,83.49
2023-02-12T10:13:24.718Z,81.17
2023-02-12T10:15:55.223Z,84.17
2023-02-12T10:18:45.348Z,83.35
2023-02-12T10:21:39.493Z,81.23
2023-02-12T10:24:23.372Z,81.66
2023-02-12T10:26:54.255Z,82.90
2023-02-12T10:29:24.826Z,82.89
2023-02-12T10:34:33.903Z,84.69
2023-02-12T10:37:11.208Z,85.70
2023-02-12T10:39:44.525Z,81.81
2023-02-12T10:42:25.983Z,84.15
2023-02-12T10:44:52.548Z,83.58
2023-02-12T10:47:22.195Z,82.32
2023-02-12T10:50:02.015Z,83.32
2023-02-12T10:52:43.730Z,81.87
2023-02-12T10:55:33.903Z,80.55
2023-02-12T10:58:02.901Z,79.46
2023-02-12T11:00:31.734Z,79.51
2023-02-12T11:03:03.885Z,80.05
2023-02-12T11:05:34.250Z,80.52
2023-02-12T11:08:01.446Z,78.56
2023-02-12T11:10:28.145Z,80.96
2023-02-12T11:12:55.391Z,80.85
2023-02-12T11:15:31.216Z,81.34
2023-02-12T11:18:08.821Z,80.87
2023-02-12T11:20:41.271Z,78.68
2023-02-12T11:23:22.947Z,80.15
2023-02-12T11:26:04.319Z,78.10
2023-02-12T11:28:32.828Z,81.21
2023-02-12T11:31:01.066Z,81.86
2023-02-12T11:33:32.061Z,82.63
2023-02-12T11:36:07.251Z,80.48
2023-02-12T11:38:37.772Z,78.79
2023-02-12T11:41:17.390Z,81.24
2023-02-12T11:43:45.111Z,81.84
2023-02-12T11:46:22.567Z,81.63
2023-02-12T11:48:50.909Z,80.61
2023-02-12T11:51:29.739Z,78.49
2023-02-12T11:54:00.594Z,80.95
2023-02-12T11:56:42.754Z,78.51
2023-02-12T11:59:24.277Z,81.60
2023-02-12T12:01:55.165Z,80.83
2023-02-12T12:04:24.126Z,80.97
2023-02-12T12:07:11.606Z,81.88
2023-02-12T12:09:49.620Z,79.53
2023-02-12T12:12:23.322Z,79.51
2023-02-12T12:15:21.542Z,81.93
2023-02-12T12:18:22.498Z,78.81
2023-02-12T12:21:03.539Z,79.15
2023-02-12T12:23:41.637Z,78.14
2023-02-12T12:26:18.814Z,79.44
2023-02-12T12:28:59.009Z,79.36
2023-02-12T12:31:31.693Z,79.99
2023-02-12T12:34:04.100Z,79.67
2023-02-12T12:36:52.229Z,80.71
2023-02-12T12:39:56.044Z,76.05
2023-02-12T12:42:53.828Z,76.74
2023-02-12T12:45:32.410Z,82.35
2023-02-12T12:48:20.381Z,79.64
2023-02-12T12:51:02.348Z,78.11
2023-02-12T12:53:43.188Z,78.73
2023-02-12T12:56:21.890Z,77.32
2023-02-12T12:59:25.984Z,76.38
2023-02-12T13:02:00.225Z,79.73
2023-02-12T13:04:26.687Z,75.40
2023-02-12T13:07:32.706Z,75.20
2023-02-12T13:10:26.538Z,75.96
2023-02-12T13:13:11.752Z,75.36
2023-02-12T13:15:52.797Z,75.80
2023-02-12T13:18:19.205Z,74.71
2023-02-12T13:20:54.612Z,74.57
2023-02-12T13:23:46.007Z,78.17
2023-02-12T13:26:35.732Z,76.62
2023-02-12T13:29:12.030Z,76.16
2023-02-12T13:31:47.742Z,76.13
2023-02-12T13:34:17.566Z,76.17
2023-02-12T13:36:45.559Z,77.25
2023-02-12T13:39:22.678Z,77.44
2023-02-12T13:42:02.218Z,75.04
2023-02-12T13:44:36.306Z,75.67
2023-02-12T13:47:09.582Z,76.72
2023-02-12T13:49:52.319Z,76.51
2023-02-12T13:52:47.911Z,76.19
2023-02-12T13:55:46.473Z,72.26
2023-02-12T13:58:31.796Z,74.35
2023-02-12T14:01:12.867Z,73.36
2023-02-12T14:03:40.099Z,75.02
2023-02-12T14:06:12.330Z,74.08
2023-02-12T14:08:42.244Z,73.59
2023-02-12T14:11:19.184Z,75.63
2023-02-12T14:14:00.453Z,75.13
2023-02-12T14:16:29.989Z,74.13
2023-02-12T14:19:34.195Z,74.63
2023-02-12T14:22:01.648Z,75.47
2023-02-12T14:24:37.271Z,72.89
2023-02-12T14:27:21.449Z,74.56
2023-02-12T14:30:04.535Z,76.45
2023-02-12T14:32:58.093Z,73.67
2023-02-12T14:35:38.098Z,73.90
2023-02-12T14:38:27.847Z,73.07
2023-02-12T14:41:33.994Z,71.58
2023-02-12T14:44:20.428Z,74.33
2023-02-12T14:46:49.457Z,73.92
2023-02-12T14:49:24.964Z,74.30
2023-02-12T14:52:05.116Z,73.75
2023-02-12T14:54:36.942Z,74.65
2023-02-12T14:57:09.755Z,73.94
2023-02-12T14:59:41.498Z,73.29
2023-02-12T15:02:15.262Z,73.56
2023-02-12T15:04:45.275Z,74.40
2023-02-12T15:07:21.677Z,72.52
2023-02-12T15:09:55.898Z,71.27
2023-02-12T15:12:26.727Z,73.79
2023-02-12T15:14:59.513Z,72.02
2023-02-12T15:17:30.871Z,73.23
2023-02-12T15:20:13.236Z,70.43
2023-02-12T15:22:40.849Z,69.58
2023-02-12T15:25:26.866Z,71.36
2023-02-12T15:28:00.639Z,73.20
2023-02-12T15:30:30.951Z,72.63
2023-02-12T15:33:00.331Z,73.37
2023-02-12T15:35:29.326Z,71.29
2023-02-12T15:37:57.274Z,70.18
2023-02-12T15:40:24.109Z,71.80
2023-02-12T15:43:04.758Z,71.95
2023-02-12T15:45:33.921Z,71.06
2023-02-12T15:48:05.201Z,70.35
2023-02-12T15:50:33.130Z,70.18
2023-02-12T15:53:00.080Z,72.20
2023-02-12T15:55:30.458Z,71.77
2023-02-12T15:58:00.323Z,75.00
2023-02-12T16:00:39.448Z,73.00
2023-02-12T16:03:05.977Z,72.45
2023-02-12T16:05:35.068Z,72.45
2023-02-12T16:08:02.023Z,72.23
2023-02-12T16:10:28.904Z,71.18
2023-02-12T16:12:57.634Z,70.12
2023-02-12T16:15:34.432Z,71.26
2023-02-12T16:18:04.079Z,74.91
2023-02-12T16:20:31.514Z,73.55
2023-02-12T16:22:59.253Z,73.54
2023-02-12T16:25:28.108Z,72.12
2023-02-12T16:28:18.699Z,71.94
2023-02-12T16:30:48.280Z,73.57
2023-02-12T16:33:53.115Z,74.11
2023-02-12T16:36:19.519Z,77.80
2023-02-12T16:39:00.456Z,79.01
2023-02-12T16:41:32.827Z,79.03
2023-02-12T16:44:02.337Z,76.65
2023-02-12T16:46:31.386Z,78.38
2023-02-12T16:49:00.731Z,79.78
2023-02-12T16:51:27.417Z,75.81
2023-02-12T16:53:57.475Z,78.88
2023-02-12T16:56:27.555Z,76.45
2023-02-12T16:58:58.054Z,78.06
2023-02-12T17:01:33.438Z,80.31
2023-02-12T17:04:02.097Z,80.30
2023-02-12T17:06:30.668Z,79.72
2023-02-12T17:08:57.749Z,78.10
2023-02-12T17:11:26.803Z,78.22
2023-02-12T17:13:55.469Z,79.70
2023-02-12T17:16:30.665Z,78.59
2023-02-12T17:18:59.129Z,76.11
2023-02-12T17:21:38.073Z,77.44
2023-02-12T17:24:15.028Z,78.32
2023-02-12T17:26:41.495Z,76.50
2023-02-12T17:29:07.887Z,75.59
2023-02-12T17:31:36.550Z,77.92
2023-02-12T17:34:04.500Z,78.23
2023-02-12T17:36:30.926Z,78.25
2023-02-12T17:38:57.352Z,80.54
2023-02-12T17:41:24.444Z,81.81
2023-02-12T17:43:50.930Z,80.92
2023-02-12T17:46:20.548Z,78.59
2023-02-12T17:48:47.215Z,78.24
2023-02-12T17:51:14.471Z,79.15
2023-02-12T17:53:41.637Z,77.67
2023-02-12T17:56:12.647Z,80.89
2023-02-12T17:58:40.363Z,77.44
2023-02-12T18:01:09.041Z,80.32
2023-02-12T18:03:35.773Z,79.38
2023-02-12T18:06:02.432Z,79.15
2023-02-12T18:08:29.141Z,75.42
2023-02-12T18:10:56.558Z,79.24
2023-02-12T18:13:23.660Z,77.52
2023-02-12T18:15:52.206Z,80.37
2023-02-12T18:18:18.819Z,77.93
2023-02-12T18:20:45.317Z,78.64
2023-02-12T18:23:11.976Z,76.64
2023-02-12T18:25:43.188Z,79.06
2023-02-12T18:28:11.162Z,77.03
2023-02-12T18:30:38.964Z,76.42
2023-02-12T18:33:06.159Z,77.13
2023-02-12T18:35:33.636Z,79.43
2023-02-12T18:38:00.089Z,77.49
2023-02-12T18:40:26.561Z,78.48
2023-02-12T18:42:53.000Z,76.00
2023-02-12T18:45:19.540Z,75.84
2023-02-12T18:47:46.047Z,76.41
2023-02-12T18:50:12.503Z,77.22
2023-02-12T18:52:38.902Z,76.09
2023-02-12T18:55:06.823Z,77.30
2023-02-12T18:57:33.320Z,76.59
2023-02-12T18:59:59.848Z,76.22
2023-02-12T19:02:26.355Z,77.11
2023-02-12T19:04:52.883Z,75.72
2023-02-12T19:07:19.311Z,77.42
2023-02-12T19:09:45.840Z,77.45
2023-02-12T19:12:12.285Z,77.26
2023-02-12T19:14:38.770Z,73.82
2023-02-12T19:17:05.219Z,73.59
2023-02-12T19:19:31.645Z,72.04
2023-02-12T19:21:58.087Z,72.54
2023-02-12T19:24:24.578Z,72.79
2023-02-12T19:26:52.796Z,72.78
2023-02-12T19:29:19.328Z,72.39
2023-02-12T19:31:46.621Z,72.12
2023-02-12T19:34:19.990Z,72.36
2023-02-12T19:36:47.450Z,73.51
2023-02-12T19:39:16.603Z,72.76
2023-02-12T19:41:43.483Z,72.35
2023-02-12T19:44:13.055Z,73.01
2023-02-12T19:46:40.538Z,71.65
2023-02-12T19:49:08.206Z,72.44
2023-02-12T19:51:34.732Z,71.51
2023-02-12T19:54:04.095Z,73.87
2023-02-12T19:56:31.220Z,72.30
2023-02-12T19:58:58.335Z,71.90
2023-02-12T20:01:27.194Z,72.13
2023-02-12T20:03:54.547Z,72.50
2023-02-12T20:06:28.119Z,71.64
2023-02-12T20:08:54.947Z,71.84
2023-02-12T20:11:28.685Z,70.80
2023-02-12T20:13:55.663Z,72.47
2023-02-12T20:16:25.977Z,72.27
2023-02-12T20:18:54.620Z,73.06
2023-02-12T20:21:24.686Z,72.81
2023-02-12T20:23:51.688Z,73.51
2023-02-12T20:26:19.814Z,73.77
2023-02-12T20:28:47.378Z,72.38
2023-02-12T20:31:22.379Z,72.36
2023-02-12T20:33:54.024Z,72.39
2023-02-12T20:36:20.475Z,71.03
2023-02-12T20:38:51.701Z,71.53
2023-02-12T20:41:18.195Z,71.96
2023-02-12T20:43:44.647Z,73.07
2023-02-12T20:46:14.939Z,72.16
2023-02-12T20:48:42.107Z,73.31
2023-02-12T20:51:12.483Z,72.21
2023-02-12T20:53:39.461Z,72.43
2023-02-12T20:56:14.742Z,72.01
2023-02-12T20:58:44.683Z,73.42
2023-02-12T21:01:14.005Z,73.06
2023-02-12T21:03:41.366Z,72.03
2023-02-12T21:06:07.895Z,72.49
2023-02-12T21:08:38.682Z,73.77
2023-02-12T21:11:12.930Z,75.39
2023-02-12T21:13:39.365Z,74.06
2023-02-12T21:16:12.446Z,75.57
2023-02-12T21:18:39.314Z,76.09
2023-02-12T21:21:10.047Z,73.22
2023-02-12T21:23:36.907Z,72.71
2023-02-12T21:26:09.109Z,74.96
2023-02-12T21:28:36.447Z,72.78
2023-02-12T21:31:10.422Z,72.65
2023-02-12T21:33:38.656Z,73.03
2023-02-12T21:36:07.862Z,72.87
2023-02-12T21:38:37.897Z,71.79
2023-02-12T21:41:14.158Z,73.40
2023-02-12T21:43:42.403Z,74.34
2023-02-12T21:46:09.884Z,74.28
2023-02-12T21:48:38.930Z,72.36
2023-02-12T21:51:06.094Z,73.45
2023-02-12T21:53:32.889Z,72.29
2023-02-12T21:56:03.958Z,73.76
2023-02-12T21:58:30.411Z,74.60
2023-02-12T22:00:57.131Z,76.08
2023-02-12T22:03:23.762Z,76.09
2023-02-12T22:05:50.707Z,74.22
2023-02-12T22:08:17.180Z,73.91
2023-02-12T22:10:43.657Z,74.73
2023-02-12T22:13:10.034Z,73.32
2023-02-12T22:15:36.587Z,72.65
2023-02-12T22:18:03.070Z,74.70
2023-02-12T22:20:29.500Z,73.93
2023-02-12T22:22:55.993Z,73.97
2023-02-12T22:25:22.557Z,74.36
2023-02-12T22:27:49.034Z,75.42
2023-02-12T22:30:16.591Z,74.12
2023-02-12T22:32:43.069Z,74.52
2023-02-12T22:35:09.610Z,74.34
2023-02-12T22:37:39.148Z,73.22
2023-02-12T22:40:08.304Z,75.50
2023-02-12T22:42:34.726Z,74.64
2023-02-12T22:45:01.202Z,74.18
2023-02-12T22:47:31.883Z,75.39
2023-02-12T22:49:59.645Z,74.45
2023-02-12T22:52:27.001Z,75.15
2023-02-12T22:54:54.060Z,74.58
2023-02-12T22:57:20.755Z,73.67
2023-02-12T22:59:49.121Z,74.14
2023-02-12T23:02:15.771Z,74.94
2023-02-12T23:04:42.317Z,74.19
2023-02-12T23:07:08.702Z,73.91
2023-02-12T23:09:35.099Z,73.81
2023-02-12T23:12:01.631Z,73.30
2023-02-12T23:14:28.130Z,73.55
2023-02-12T23:16:54.594Z,74.84
2023-02-12T23:19:21.206Z,74.60
2023-02-12T23:21:47.686Z,73.67
2023-02-12T23:24:14.842Z,73.03
2023-02-12T23:26:41.454Z,73.12
2023-02-12T23:29:08.195Z,74.31
2023-02-12T23:31:34.764Z,73.42
2023-02-12T23:34:01.318Z,74.55
2023-02-12T23:36:28.254Z,73.63
2023-02-12T23:38:54.911Z,73.40
2023-02-12T23:41:21.401Z,74.11
2023-02-12T23:43:47.841Z,75.10
2023-02-12T23:46:14.327Z,73.97
2023-02-12T23:48:41.194Z,74.09
2023-02-12T23:51:07.762Z,74.49
2023-02-12T23:53:34.266Z,74.60
2023-02-12T23:56:00.749Z,74.24
2023-02-12T23:58:27.243Z,73.75
